Arnett, Texas
Current Conditions -  °F | °C
As of 1:55 AM on Monday 22 Dec 2014 (Local Time) from KGOP Reporting Station
Overcast Overcast  
Wind Chill: 54°   Ceiling: 1500
Heat Index: 54°   Visibility: 10mi
Dew Point: 48°   Wind: 14mph
Humidity: 82%   Direction: 210°SSW
Pressure: 29.75"   Gusts: NA
Location:  31.392°N, 97.7452°W
Report Text: KGOP 220755Z AUTO 21012KT 10SM OVC015 12/09 A2975 RMK AO2 PWINO
Loading
Personal Weather Stations






























Interactive Weather Map New forecast layout! Learn more

10-Day Weather Forecast

Advertisements
Track Severe Weather on mobile